KBMIKUGN

Guest
Details From KBMI - Central Illinois Rgnl
To KUGN - WAUKEGAN RGNL
Flight Number -
Tags decoded
Created
Modified
Stats Distance 126 nm / 233 km
Max Altitude 0 ft / 0 m
Waypoints 3
Social Downloads 1
Likes 0
Share VATSIM

Download

Looking for another format? Having issues loading an existing format? Contact us
Advertisement - Login to hide

Notes

Requested: KBMI LEEDN DETIE KUGN Unmatched points: DETIE

Route

KBMI LEEDN KUGN

ID Type Via Altitude Latitude Longitude Leg Dist Tot Dist Heading (true) Name
O KBMI APT - 0 ft / 0 m 40.47858˚ -88.92043˚ - 0 nm - Central Illinois Rgnl
LEEDN FIX - 0 ft / 0 m 41.71316˚ -88.31635˚ 79 nm 79 nm 20° / 20° -
O KUGN APT - 0 ft / 0 m 42.42240˚ -87.86811˚ 47 nm 126 nm 25° / 25° WAUKEGAN RGNL

Altitude Profile

Advertisement - Login to hide

KBMI

Details ICAO KBMI (BMI)
Name Central Illinois Rgnl
Region United States
Timezone America/Chicago (UTC-6.0)
Stats Elevation 871 ft / 265 m (AMSL)
Location 40.478578° -88.920429°
Runways 3
Magnetic Variation 2.723° W

METAR

KBMI 161256Z 21012KT 10SM CLR M01/M04 A2990 RMK AO2 SLP148 T10111044

Decode

TAF

TAF KBMI 161125Z 1612/1712 20014KT P6SM SCT250 FM161600 21014G22KT P6SM SKC FM162200 19008KT P6SM SKC FM170900 19008KT P6SM BKN120

Decode

Departure Runways

ID Width Length Bearing (true) Bearing (mag) Surface Threshold Offset Overrun Length
02 150 ft / 46 m 8,010 ft / 2,441 m 17.84° 20.56° Concrete 0 ft / 0 m 0 ft / 0 m
03 100 ft / 30 m 3,723 ft / 1,135 m 36.30° 39.02° Asphalt 0 ft / 0 m 0 ft / 0 m
11 150 ft / 46 m 6,513 ft / 1,985 m 107.95° 110.67° Asphalt 0 ft / 0 m 0 ft / 0 m
20 150 ft / 46 m 8,010 ft / 2,441 m 197.85° 200.57° Concrete 0 ft / 0 m 0 ft / 0 m
21 100 ft / 30 m 3,723 ft / 1,135 m 216.30° 219.02° Asphalt 0 ft / 0 m 0 ft / 0 m
29 150 ft / 46 m 6,513 ft / 1,985 m 287.97° 290.69° Asphalt 0 ft / 0 m 0 ft / 0 m

KUGN

Details ICAO KUGN (UGN)
Name WAUKEGAN RGNL
Region United States
Timezone America/Chicago (UTC-6.0)
Stats Elevation 727 ft / 222 m (AMSL)
Location 42.422401° -87.868107°
Runways 2
Magnetic Variation 3.833° W

METAR

KUGN 161255Z 23007KT 10SM OVC075 02/M03 A2983 RMK AO2 SLP111 T00221033

Decode

TAF

Not found

Destination Runways

ID Width Length Bearing (true) Bearing (mag) Surface Threshold Offset Overrun Length
05 150 ft / 46 m 5,994 ft / 1,827 m 48.35° 52.18° Asphalt 0 ft / 0 m 0 ft / 0 m
14 75 ft / 23 m 3,751 ft / 1,143 m 144.30° 148.13° Asphalt 500 ft / 152 m 0 ft / 0 m
23 150 ft / 46 m 5,994 ft / 1,827 m 228.36° 232.19° Asphalt 0 ft / 0 m 0 ft / 0 m
32 75 ft / 23 m 3,751 ft / 1,143 m 324.30° 328.13° Asphalt 0 ft / 0 m 0 ft / 0 m

Approach Navaids

Runway Type Ident Frequency Range Bearing (true) Bearing (mag) Slope Elevation
23 Localiser IUGN 110.70 MHz 18 nm / 33 km 228.35° 232.18° - 727 ft / 222 m (AMSL)
23 Glidescope IUGN 110.70 MHz 10 nm / 19 km 228.35° 232.18° 3.00° 716 ft / 218 m (AMSL)